sensor_id;sensor_type;location;lat;lon;timestamp;pressure;altitude;pressure_sealevel;temperature
28305;BMP280;15569;42.652;23.040;2023-06-10T00:00:15;92678.38;;;20.83
28305;BMP280;15569;42.652;23.040;2023-06-10T00:02:41;92668.72;;;20.78
28305;BMP280;15569;42.652;23.040;2023-06-10T00:05:08;92665.25;;;20.77
28305;BMP280;15569;42.652;23.040;2023-06-10T00:07:34;92663.19;;;20.84
28305;BMP280;15569;42.652;23.040;2023-06-10T00:10:06;92674.97;;;20.92
28305;BMP280;15569;42.652;23.040;2023-06-10T00:12:32;92672.19;;;20.86
28305;BMP280;15569;42.652;23.040;2023-06-10T00:15:03;92668.06;;;20.87
28305;BMP280;15569;42.652;23.040;2023-06-10T00:17:28;92672.88;;;20.89
28305;BMP280;15569;42.652;23.040;2023-06-10T00:19:54;92669.47;;;20.90
28305;BMP280;15569;42.652;23.040;2023-06-10T00:22:20;92662.50;;;20.83
28305;BMP280;15569;42.652;23.040;2023-06-10T00:24:47;92662.53;;;20.89
28305;BMP280;15569;42.652;23.040;2023-06-10T00:27:12;92655.63;;;20.86
28305;BMP280;15569;42.652;23.040;2023-06-10T00:29:38;92660.44;;;20.84
28305;BMP280;15569;42.652;23.040;2023-06-10T00:32:04;92651.44;;;20.83
28305;BMP280;15569;42.652;23.040;2023-06-10T00:34:30;92654.94;;;20.88
28305;BMP280;15569;42.652;23.040;2023-06-10T00:36:55;92658.38;;;20.86
28305;BMP280;15569;42.652;23.040;2023-06-10T00:39:20;92657.66;;;20.80
28305;BMP280;15569;42.652;23.040;2023-06-10T00:41:46;92666.63;;;20.80
28305;BMP280;15569;42.652;23.040;2023-06-10T00:44:11;92664.50;;;20.67
28305;BMP280;15569;42.652;23.040;2023-06-10T00:46:36;92672.84;;;20.73
28305;BMP280;15569;42.652;23.040;2023-06-10T00:49:02;92667.97;;;20.71
28305;BMP280;15569;42.652;23.040;2023-06-10T00:51:28;92674.22;;;20.74
28305;BMP280;15569;42.652;23.040;2023-06-10T00:53:53;92672.81;;;20.75
28305;BMP280;15569;42.652;23.040;2023-06-10T00:56:20;92677.59;;;20.60
28305;BMP280;15569;42.652;23.040;2023-06-10T00:58:47;92687.28;;;20.63
28305;BMP280;15569;42.652;23.040;2023-06-10T01:01:13;92688.00;;;20.66
28305;BMP280;15569;42.652;23.040;2023-06-10T01:03:39;92688.69;;;20.70
28305;BMP280;15569;42.652;23.040;2023-06-10T01:06:13;92680.34;;;20.62
28305;BMP280;15569;42.652;23.040;2023-06-10T01:11:54;92691.47;;;20.74
28305;BMP280;15569;42.652;23.040;2023-06-10T01:14:23;92692.81;;;20.71
28305;BMP280;15569;42.652;23.040;2023-06-10T01:16:49;92696.31;;;20.74
28305;BMP280;15569;42.652;23.040;2023-06-10T01:19:15;92690.13;;;20.79
28305;BMP280;15569;42.652;23.040;2023-06-10T01:21:43;92684.59;;;20.77
28305;BMP280;15569;42.652;23.040;2023-06-10T01:24:14;92685.97;;;20.78
28305;BMP280;15569;42.652;23.040;2023-06-10T01:26:43;92680.44;;;20.76
28305;BMP280;15569;42.652;23.040;2023-06-10T01:29:36;92675.63;;;20.81
28305;BMP280;15569;42.652;23.040;2023-06-10T01:32:08;92681.84;;;20.79
28305;BMP280;15569;42.652;23.040;2023-06-10T01:34:37;92676.31;;;20.77
28305;BMP280;15569;42.652;23.040;2023-06-10T01:37:04;92670.78;;;20.77
28305;BMP280;15569;42.652;23.040;2023-06-10T01:39:30;92668.00;;;20.77
28305;BMP280;15569;42.652;23.040;2023-06-10T01:41:57;92665.25;;;20.75
28305;BMP280;15569;42.652;23.040;2023-06-10T01:44:23;92665.25;;;20.77
28305;BMP280;15569;42.652;23.040;2023-06-10T01:46:49;92659.00;;;20.75
28305;BMP280;15569;42.652;23.040;2023-06-10T01:49:14;92665.25;;;20.75
28305;BMP280;15569;42.652;23.040;2023-06-10T01:51:40;92656.91;;;20.71
28305;BMP280;15569;42.652;23.040;2023-06-10T01:54:06;92654.09;;;20.53
28305;BMP280;15569;42.652;23.040;2023-06-10T01:56:32;92660.19;;;20.35
28305;BMP280;15569;42.652;23.040;2023-06-10T01:58:58;92654.69;;;20.39
28305;BMP280;15569;42.652;23.040;2023-06-10T02:01:27;92652.72;;;20.52
28305;BMP280;15569;42.652;23.040;2023-06-10T02:03:52;92654.13;;;20.57
28305;BMP280;15569;42.652;23.040;2023-06-10T02:06:18;92654.13;;;20.65
28305;BMP280;15569;42.652;23.040;2023-06-10T02:08:44;92645.84;;;20.65
28305;BMP280;15569;42.652;23.040;2023-06-10T02:11:09;92637.56;;;20.65
28305;BMP280;15569;42.652;23.040;2023-06-10T02:13:34;92634.78;;;20.59
28305;BMP280;15569;42.652;23.040;2023-06-10T02:16:00;92640.25;;;20.45
28305;BMP280;15569;42.652;23.040;2023-06-10T02:18:26;92660.81;;;20.24
28305;BMP280;15569;42.652;23.040;2023-06-10T02:20:53;92668.06;;;19.77
28305;BMP280;15569;42.652;23.040;2023-06-10T02:23:18;92663.25;;;19.82
28305;BMP280;15569;42.652;23.040;2023-06-10T02:25:44;92658.59;;;20.04
28305;BMP280;15569;42.652;23.040;2023-06-10T02:28:09;92660.75;;;20.16
28305;BMP280;15569;42.652;23.040;2023-06-10T02:30:35;92651.78;;;20.17
28305;BMP280;15569;42.652;23.040;2023-06-10T02:33:00;92655.19;;;20.12
28305;BMP280;15569;42.652;23.040;2023-06-10T02:35:26;92657.28;;;20.11
28305;BMP280;15569;42.652;23.040;2023-06-10T02:37:52;92654.59;;;20.19
28305;BMP280;15569;42.652;23.040;2023-06-10T02:40:17;92656.66;;;20.25
28305;BMP280;15569;42.652;23.040;2023-06-10T02:42:42;92652.56;;;20.30
28305;BMP280;15569;42.652;23.040;2023-06-10T02:45:08;92644.31;;;20.34
28305;BMP280;15569;42.652;23.040;2023-06-10T02:47:33;92648.47;;;20.39
28305;BMP280;15569;42.652;23.040;2023-06-10T02:49:59;92645.03;;;20.38
28305;BMP280;15569;42.652;23.040;2023-06-10T02:52:24;92635.38;;;20.41
28305;BMP280;15569;42.652;23.040;2023-06-10T02:54:50;92627.78;;;20.40
28305;BMP280;15569;42.652;23.040;2023-06-10T02:57:15;92640.25;;;20.45
28305;BMP280;15569;42.652;23.040;2023-06-10T02:59:40;92649.19;;;20.46
28305;BMP280;15569;42.652;23.040;2023-06-10T03:02:06;92647.13;;;20.50
28305;BMP280;15569;42.652;23.040;2023-06-10T03:04:32;92654.03;;;20.47
28305;BMP280;15569;42.652;23.040;2023-06-10T03:06:58;92656.16;;;20.53
28305;BMP280;15569;42.652;23.040;2023-06-10T03:09:25;92663.69;;;20.44
28305;BMP280;15569;42.652;23.040;2023-06-10T03:11:51;92659.56;;;20.43
28305;BMP280;15569;42.652;23.040;2023-06-10T03:14:16;92658.19;;;20.48
28305;BMP280;15569;42.652;23.040;2023-06-10T03:16:42;92658.22;;;20.54
28305;BMP280;15569;42.652;23.040;2023-06-10T03:19:08;92666.53;;;20.56
28305;BMP280;15569;42.652;23.040;2023-06-10T03:21:36;92652.63;;;20.42
28305;BMP280;15569;42.652;23.040;2023-06-10T03:24:03;92655.47;;;20.52
28305;BMP280;15569;42.652;23.040;2023-06-10T03:26:28;92660.31;;;20.56
28305;BMP280;15569;42.652;23.040;2023-06-10T03:28:53;92664.44;;;20.55
28305;BMP280;15569;42.652;23.040;2023-06-10T03:31:19;92647.19;;;20.56
28305;BMP280;15569;42.652;23.040;2023-06-10T03:33:44;92648.56;;;20.59
28305;BMP280;15569;42.652;23.040;2023-06-10T03:36:10;92643.09;;;20.63
28305;BMP280;15569;42.652;23.040;2023-06-10T03:38:35;92638.97;;;20.64
28305;BMP280;15569;42.652;23.040;2023-06-10T03:41:01;92646.56;;;20.66
28305;BMP280;15569;42.652;23.040;2023-06-10T03:43:27;92646.56;;;20.62
28305;BMP280;15569;42.652;23.040;2023-06-10T03:45:53;92633.41;;;20.58
28305;BMP280;15569;42.652;23.040;2023-06-10T03:48:18;92633.44;;;20.64
28305;BMP280;15569;42.652;23.040;2023-06-10T03:50:44;92632.75;;;20.66
28305;BMP280;15569;42.652;23.040;2023-06-10T03:53:09;92627.22;;;20.66
28305;BMP280;15569;42.652;23.040;2023-06-10T03:55:35;92622.38;;;20.68
28305;BMP280;15569;42.652;23.040;2023-06-10T03:58:01;92625.84;;;20.69
28305;BMP280;15569;42.652;23.040;2023-06-10T04:00:27;92630.69;;;20.70
28305;BMP280;15569;42.652;23.040;2023-06-10T04:02:52;92632.03;;;20.61
28305;BMP280;15569;42.652;23.040;2023-06-10T04:05:19;92630.63;;;20.52
28305;BMP280;15569;42.652;23.040;2023-06-10T04:07:46;92633.16;;;20.18
28305;BMP280;15569;42.652;23.040;2023-06-10T04:10:14;92648.41;;;20.23
28305;BMP280;15569;42.652;23.040;2023-06-10T04:12:39;92642.88;;;20.29
28305;BMP280;15569;42.652;23.040;2023-06-10T04:15:06;92641.47;;;20.26
28305;BMP280;15569;42.652;23.040;2023-06-10T04:17:32;92646.84;;;20.04
28305;BMP280;15569;42.652;23.040;2023-06-10T04:19:57;92641.47;;;20.26
28305;BMP280;15569;42.652;23.040;2023-06-10T04:22:26;92650.59;;;20.41
28305;BMP280;15569;42.652;23.040;2023-06-10T04:24:52;92654.75;;;20.54
28305;BMP280;15569;42.652;23.040;2023-06-10T04:27:17;92640.28;;;20.53
28305;BMP280;15569;42.652;23.040;2023-06-10T04:29:43;92650.00;;;20.64
28305;BMP280;15569;42.652;23.040;2023-06-10T04:32:08;92641.75;;;20.72
28305;BMP280;15569;42.652;23.040;2023-06-10T04:34:34;92647.97;;;20.75
28305;BMP280;15569;42.652;23.040;2023-06-10T04:37:00;92647.97;;;20.83
28305;BMP280;15569;42.652;23.040;2023-06-10T04:39:25;92639.03;;;20.84
28305;BMP280;15569;42.652;23.040;2023-06-10T04:41:51;92652.22;;;20.94
28305;BMP280;15569;42.652;23.040;2023-06-10T04:44:16;92658.44;;;20.98
28305;BMP280;15569;42.652;23.040;2023-06-10T04:46:42;92650.84;;;20.97
28305;BMP280;15569;42.652;23.040;2023-06-10T04:49:07;92650.09;;;20.92
28305;BMP280;15569;42.652;23.040;2023-06-10T04:51:33;92652.19;;;20.90
28305;BMP280;15569;42.652;23.040;2023-06-10T04:53:59;92645.25;;;20.87
28305;BMP280;15569;42.652;23.040;2023-06-10T04:56:29;92650.16;;;20.94
28305;BMP280;15569;42.652;23.040;2023-06-10T04:58:56;92648.75;;;20.99
28305;BMP280;15569;42.652;23.040;2023-06-10T05:01:21;92636.97;;;20.91
28305;BMP280;15569;42.652;23.040;2023-06-10T05:03:47;92651.50;;;20.99
28305;BMP280;15569;42.652;23.040;2023-06-10T05:06:12;92650.13;;;20.88
28305;BMP280;15569;42.652;23.040;2023-06-10T05:08:37;92647.88;;;20.57
28305;BMP280;15569;42.652;23.040;2023-06-10T05:11:03;92656.78;;;20.41
28305;BMP280;15569;42.652;23.040;2023-06-10T05:13:28;92660.22;;;20.41
28305;BMP280;15569;42.652;23.040;2023-06-10T05:15:54;92651.84;;;20.29
28305;BMP280;15569;42.652;23.040;2023-06-10T05:18:19;92648.31;;;20.13
28305;BMP280;15569;42.652;23.040;2023-06-10T05:20:44;92662.13;;;20.15
28305;BMP280;15569;42.652;23.040;2023-06-10T05:23:10;92652.44;;;20.10
28305;BMP280;15569;42.652;23.040;2023-06-10T05:25:35;92653.25;;;20.28
28305;BMP280;15569;42.652;23.040;2023-06-10T05:28:01;92658.88;;;20.45
28305;BMP280;15569;42.652;23.040;2023-06-10T05:30:27;92659.53;;;20.41
28305;BMP280;15569;42.652;23.040;2023-06-10T05:32:52;92654.00;;;20.39
28305;BMP280;15569;42.652;23.040;2023-06-10T05:35:18;92667.91;;;20.55
28305;BMP280;15569;42.652;23.040;2023-06-10T05:37:44;92663.13;;;20.62
28305;BMP280;15569;42.652;23.040;2023-06-10T05:40:10;92663.88;;;20.76
28305;BMP280;15569;42.652;23.040;2023-06-10T05:42:35;92672.25;;;20.94
28305;BMP280;15569;42.652;23.040;2023-06-10T05:45:01;92676.44;;;21.09
28305;BMP280;15569;42.652;23.040;2023-06-10T05:47:27;92668.84;;;21.20
28305;BMP280;15569;42.652;23.040;2023-06-10T05:49:53;92668.22;;;21.37
28305;BMP280;15569;42.652;23.040;2023-06-10T05:52:18;92667.53;;;21.49
28305;BMP280;15569;42.652;23.040;2023-06-10T05:54:44;92667.56;;;21.57
28305;BMP280;15569;42.652;23.040;2023-06-10T05:57:09;92663.41;;;21.60
28305;BMP280;15569;42.652;23.040;2023-06-10T05:59:35;92664.78;;;21.57
28305;BMP280;15569;42.652;23.040;2023-06-10T06:02:01;92666.16;;;21.54
28305;BMP280;15569;42.652;23.040;2023-06-10T06:04:26;92662.03;;;21.57
28305;BMP280;15569;42.652;23.040;2023-06-10T06:06:52;92659.22;;;21.43
28305;BMP280;15569;42.652;23.040;2023-06-10T06:09:17;92669.63;;;21.46
28305;BMP280;15569;42.652;23.040;2023-06-10T06:11:42;92674.47;;;21.46
28305;BMP280;15569;42.652;23.040;2023-06-10T06:14:08;92672.41;;;21.52
28305;BMP280;15569;42.652;23.040;2023-06-10T06:16:33;92669.63;;;21.58
28305;BMP280;15569;42.652;23.040;2023-06-10T06:18:58;92675.19;;;21.56
28305;BMP280;15569;42.652;23.040;2023-06-10T06:21:24;92675.13;;;21.32
28305;BMP280;15569;42.652;23.040;2023-06-10T06:23:49;92672.38;;;21.44
28305;BMP280;15569;42.652;23.040;2023-06-10T06:26:15;92675.84;;;21.57
28305;BMP280;15569;42.652;23.040;2023-06-10T06:28:40;92677.22;;;21.54
28305;BMP280;15569;42.652;23.040;2023-06-10T06:31:06;92684.13;;;21.33
28305;BMP280;15569;42.652;23.040;2023-06-10T06:33:32;92674.41;;;21.28
28305;BMP280;15569;42.652;23.040;2023-06-10T06:35:57;92680.72;;;21.56
28305;BMP280;15569;42.652;23.040;2023-06-10T06:38:25;92677.97;;;21.85
28305;BMP280;15569;42.652;23.040;2023-06-10T06:40:51;92681.38;;;21.59
28305;BMP280;15569;42.652;23.040;2023-06-10T06:43:16;92669.66;;;21.69
28305;BMP280;15569;42.652;23.040;2023-06-10T06:45:42;92668.94;;;21.66
28305;BMP280;15569;42.652;23.040;2023-06-10T06:48:08;92671.72;;;21.96
28305;BMP280;15569;42.652;23.040;2023-06-10T06:50:33;92664.09;;;22.11
28305;BMP280;15569;42.652;23.040;2023-06-10T06:52:59;92660.69;;;22.04
28305;BMP280;15569;42.652;23.040;2023-06-10T06:55:24;92657.22;;;22.04
28305;BMP280;15569;42.652;23.040;2023-06-10T06:57:49;92664.81;;;21.87
28305;BMP280;15569;42.652;23.040;2023-06-10T07:00:15;92669.66;;;21.97
28305;BMP280;15569;42.652;23.040;2023-06-10T07:02:40;92664.78;;;22.25
28305;BMP280;15569;42.652;23.040;2023-06-10T07:05:06;92655.78;;;22.21
28305;BMP280;15569;42.652;23.040;2023-06-10T07:07:32;92657.19;;;22.24
28305;BMP280;15569;42.652;23.040;2023-06-10T07:09:57;92652.94;;;22.61
28305;BMP280;15569;42.652;23.040;2023-06-10T07:12:23;92659.84;;;22.68
28305;BMP280;15569;42.652;23.040;2023-06-10T07:14:51;92647.31;;;22.73
28305;BMP280;15569;42.652;23.040;2023-06-10T07:17:17;92645.78;;;23.14
28305;BMP280;15569;42.652;23.040;2023-06-10T07:19:43;92640.31;;;23.02
28305;BMP280;15569;42.652;23.040;2023-06-10T07:22:09;92640.28;;;23.00
28305;BMP280;15569;42.652;23.040;2023-06-10T07:24:34;92645.66;;;23.34
28305;BMP280;15569;42.652;23.040;2023-06-10T07:27:00;92637.47;;;23.12
28305;BMP280;15569;42.652;23.040;2023-06-10T07:29:25;92648.75;;;22.64
28305;BMP280;15569;42.652;23.040;2023-06-10T07:31:51;92644.56;;;22.73
28305;BMP280;15569;42.652;23.040;2023-06-10T07:34:16;92639.00;;;22.83
28305;BMP280;15569;42.652;23.040;2023-06-10T07:36:41;92634.78;;;22.92
28305;BMP280;15569;42.652;23.040;2023-06-10T07:39:07;92631.19;;;23.16
28305;BMP280;15569;42.652;23.040;2023-06-10T07:41:33;92632.00;;;22.96
28305;BMP280;15569;42.652;23.040;2023-06-10T07:43:58;92632.81;;;22.66
28305;BMP280;15569;42.652;23.040;2023-06-10T07:46:24;92635.53;;;22.82
28305;BMP280;15569;42.652;23.040;2023-06-10T07:48:49;92635.28;;;23.31
28305;BMP280;15569;42.652;23.040;2023-06-10T07:51:16;92641.38;;;23.47
28305;BMP280;15569;42.652;23.040;2023-06-10T07:53:42;92633.16;;;23.37
28305;BMP280;15569;42.652;23.040;2023-06-10T07:56:07;92635.94;;;23.35
28305;BMP280;15569;42.652;23.040;2023-06-10T07:58:33;92631.59;;;23.60
28305;BMP280;15569;42.652;23.040;2023-06-10T08:00:58;92624.78;;;23.43
28305;BMP280;15569;42.652;23.040;2023-06-10T08:03:23;92626.09;;;23.54
28305;BMP280;15569;42.652;23.040;2023-06-10T08:05:49;92630.84;;;23.68
28305;BMP280;15569;42.652;23.040;2023-06-10T08:08:14;92615.75;;;23.45
28305;BMP280;15569;42.652;23.040;2023-06-10T08:10:39;92617.69;;;23.62
28305;BMP280;15569;42.652;23.040;2023-06-10T08:13:05;92598.97;;;23.63
28305;BMP280;15569;42.652;23.040;2023-06-10T08:15:30;92623.16;;;23.74
28305;BMP280;15569;42.652;23.040;2023-06-10T08:17:56;92623.16;;;23.76
28305;BMP280;15569;42.652;23.040;2023-06-10T08:20:24;92615.53;;;23.75
28305;BMP280;15569;42.652;23.040;2023-06-10T08:22:50;92622.31;;;23.94
28305;BMP280;15569;42.652;23.040;2023-06-10T08:25:15;92624.38;;;23.93
28305;BMP280;15569;42.652;23.040;2023-06-10T08:27:40;92616.00;;;23.97
28305;BMP280;15569;42.652;23.040;2023-06-10T08:30:07;92615.91;;;24.07
28305;BMP280;15569;42.652;23.040;2023-06-10T08:32:33;92617.41;;;23.98
28305;BMP280;15569;42.652;23.040;2023-06-10T08:34:58;92617.19;;;24.18
28305;BMP280;15569;42.652;23.040;2023-06-10T08:37:24;92616.44;;;24.26
28305;BMP280;15569;42.652;23.040;2023-06-10T08:39:49;92615.66;;;24.33
28305;BMP280;15569;42.652;23.040;2023-06-10T08:42:34;92615.84;;;24.17
28305;BMP280;15569;42.652;23.040;2023-06-10T08:45:02;92607.25;;;24.42
28305;BMP280;15569;42.652;23.040;2023-06-10T08:47:30;92607.41;;;24.25
28305;BMP280;15569;42.652;23.040;2023-06-10T08:50:02;92598.69;;;24.58
28305;BMP280;15569;42.652;23.040;2023-06-10T08:52:29;92588.28;;;24.56
28305;BMP280;15569;42.652;23.040;2023-06-10T08:54:59;92592.25;;;24.73
28305;BMP280;15569;42.652;23.040;2023-06-10T08:57:25;92595.53;;;24.88
28305;BMP280;15569;42.652;23.040;2023-06-10T08:59:53;92597.44;;;25.01
28305;BMP280;15569;42.652;23.040;2023-06-10T09:02:20;92604.06;;;25.22
28305;BMP280;15569;42.652;23.040;2023-06-10T09:04:46;92591.91;;;24.99
28305;BMP280;15569;42.652;23.040;2023-06-10T09:07:13;92599.94;;;25.21
28305;BMP280;15569;42.652;23.040;2023-06-10T09:09:42;92590.66;;;25.35
28305;BMP280;15569;42.652;23.040;2023-06-10T09:12:08;92593.41;;;25.39
28305;BMP280;15569;42.652;23.040;2023-06-10T09:14:33;92597.25;;;25.58
28305;BMP280;15569;42.652;23.040;2023-06-10T09:16:59;92593.13;;;25.57
28305;BMP280;15569;42.652;23.040;2023-06-10T09:19:28;92592.22;;;25.68
28305;BMP280;15569;42.652;23.040;2023-06-10T09:21:53;92590.13;;;25.69
28305;BMP280;15569;42.652;23.040;2023-06-10T09:24:22;92580.41;;;26.07
28305;BMP280;15569;42.652;23.040;2023-06-10T09:26:47;92584.16;;;25.91
28305;BMP280;15569;42.652;23.040;2023-06-10T09:29:12;92575.16;;;25.88
28305;BMP280;15569;42.652;23.040;2023-06-10T09:31:39;92578.19;;;26.13
28305;BMP280;15569;42.652;23.040;2023-06-10T09:34:12;92565.69;;;26.12
28305;BMP280;15569;42.652;23.040;2023-06-10T09:36:39;92571.72;;;26.25
28305;BMP280;15569;42.652;23.040;2023-06-10T09:39:15;92573.53;;;26.38
28305;BMP280;15569;42.652;23.040;2023-06-10T09:41:42;92572.41;;;26.25
28305;BMP280;15569;42.652;23.040;2023-06-10T09:44:16;92568.09;;;26.30
28305;BMP280;15569;42.652;23.040;2023-06-10T09:46:43;92569.31;;;26.39
28305;BMP280;15569;42.652;23.040;2023-06-10T09:49:09;92576.16;;;26.46
28305;BMP280;15569;42.652;23.040;2023-06-10T09:51:35;92570.53;;;26.48
28305;BMP280;15569;42.652;23.040;2023-06-10T09:54:02;92566.34;;;26.49
28305;BMP280;15569;42.652;23.040;2023-06-10T09:56:37;92553.91;;;26.77
28305;BMP280;15569;42.652;23.040;2023-06-10T09:59:05;92558.44;;;26.92
28305;BMP280;15569;42.652;23.040;2023-06-10T10:01:31;92549.94;;;26.98
28305;BMP280;15569;42.652;23.040;2023-06-10T10:03:59;92561.59;;;26.74
28305;BMP280;15569;42.652;23.040;2023-06-10T10:06:26;92551.47;;;26.61
28305;BMP280;15569;42.652;23.040;2023-06-10T10:08:52;92559.31;;;26.52
28305;BMP280;15569;42.652;23.040;2023-06-10T10:11:19;92556.16;;;26.70
28305;BMP280;15569;42.652;23.040;2023-06-10T10:13:48;92559.78;;;26.63
28305;BMP280;15569;42.652;23.040;2023-06-10T10:16:21;92556.50;;;26.54
28305;BMP280;15569;42.652;23.040;2023-06-10T10:18:54;92556.38;;;26.24
28305;BMP280;15569;42.652;23.040;2023-06-10T10:21:23;92542.44;;;26.58
28305;BMP280;15569;42.652;23.040;2023-06-10T10:23:53;92550.72;;;26.62
28305;BMP280;15569;42.652;23.040;2023-06-10T10:26:21;92537.06;;;26.81
28305;BMP280;15569;42.652;23.040;2023-06-10T10:28:57;92544.81;;;26.78
28305;BMP280;15569;42.652;23.040;2023-06-10T10:31:23;92548.38;;;26.75
28305;BMP280;15569;42.652;23.040;2023-06-10T10:33:59;92542.09;;;26.76
28305;BMP280;15569;42.652;23.040;2023-06-10T10:36:27;92548.38;;;26.75
28305;BMP280;15569;42.652;23.040;2023-06-10T10:38:53;92546.69;;;26.55
28305;BMP280;15569;42.652;23.040;2023-06-10T10:41:19;92554.94;;;26.29
28305;BMP280;15569;42.652;23.040;2023-06-10T10:43:46;92535.81;;;26.43
28305;BMP280;15569;42.652;23.040;2023-06-10T10:46:16;92535.63;;;26.51
28305;BMP280;15569;42.652;23.040;2023-06-10T10:48:43;92531.44;;;26.52
28305;BMP280;15569;42.652;23.040;2023-06-10T10:51:09;92532.78;;;26.53
28305;BMP280;15569;42.652;23.040;2023-06-10T10:53:39;92521.81;;;26.45
28305;BMP280;15569;42.652;23.040;2023-06-10T10:56:07;92529.59;;;26.41
28305;BMP280;15569;42.652;23.040;2023-06-10T10:58:33;92539.66;;;26.58
28305;BMP280;15569;42.652;23.040;2023-06-10T11:00:59;92538.75;;;26.68
28305;BMP280;15569;42.652;23.040;2023-06-10T11:03:28;92530.00;;;26.86
28305;BMP280;15569;42.652;23.040;2023-06-10T11:05:57;92528.97;;;26.99
28305;BMP280;15569;42.652;23.040;2023-06-10T11:10:53;92510.09;;;27.30
28305;BMP280;15569;42.652;23.040;2023-06-10T11:13:20;92514.63;;;27.17
28305;BMP280;15569;42.652;23.040;2023-06-10T11:15:47;92514.09;;;27.37
28305;BMP280;15569;42.652;23.040;2023-06-10T11:18:26;92511.47;;;27.31
28305;BMP280;15569;42.652;23.040;2023-06-10T11:20:56;92510.22;;;27.26
28305;BMP280;15569;42.652;23.040;2023-06-10T11:31:26;92490.50;;;27.04
28305;BMP280;15569;42.652;23.040;2023-06-10T11:33:56;92507.06;;;25.81
28305;BMP280;15569;42.652;23.040;2023-06-10T11:36:22;92509.50;;;26.00
28305;BMP280;15569;42.652;23.040;2023-06-10T11:38:49;92497.50;;;25.70
28305;BMP280;15569;42.652;23.040;2023-06-10T11:41:17;92500.94;;;25.36
28305;BMP280;15569;42.652;23.040;2023-06-10T11:43:44;92496.22;;;25.27
28305;BMP280;15569;42.652;23.040;2023-06-10T11:46:10;92492.03;;;25.28
28305;BMP280;15569;42.652;23.040;2023-06-10T11:48:36;92491.91;;;25.34
28305;BMP280;15569;42.652;23.040;2023-06-10T11:51:06;92492.69;;;25.69
28305;BMP280;15569;42.652;23.040;2023-06-10T11:53:31;92502.81;;;25.48
28305;BMP280;15569;42.652;23.040;2023-06-10T11:55:56;92491.56;;;25.54
28305;BMP280;15569;42.652;23.040;2023-06-10T11:58:22;92496.00;;;25.39
28305;BMP280;15569;42.652;23.040;2023-06-10T12:00:55;92504.56;;;25.27
28305;BMP280;15569;42.652;23.040;2023-06-10T12:03:26;92496.56;;;25.05
28305;BMP280;15569;42.652;23.040;2023-06-10T12:06:05;92503.16;;;24.81
28305;BMP280;15569;42.652;23.040;2023-06-10T12:08:31;92493.53;;;24.21
28305;BMP280;15569;42.652;23.040;2023-06-10T12:10:57;92502.16;;;24.56
28305;BMP280;15569;42.652;23.040;2023-06-10T12:13:27;92486.66;;;24.71
28305;BMP280;15569;42.652;23.040;2023-06-10T12:15:53;92496.03;;;24.46
28305;BMP280;15569;42.652;23.040;2023-06-10T12:18:22;92496.16;;;24.38
28305;BMP280;15569;42.652;23.040;2023-06-10T12:20:48;92490.19;;;24.66
28305;BMP280;15569;42.652;23.040;2023-06-10T12:23:15;92496.75;;;24.93
28305;BMP280;15569;42.652;23.040;2023-06-10T12:28:17;92503.75;;;24.90
28305;BMP280;15569;42.652;23.040;2023-06-10T12:30:44;92484.16;;;24.51
28305;BMP280;15569;42.652;23.040;2023-06-10T12:33:19;92484.25;;;24.43
28305;BMP280;15569;42.652;23.040;2023-06-10T12:38:14;92476.41;;;24.05
28305;BMP280;15569;42.652;23.040;2023-06-10T12:40:46;92489.47;;;24.14
28305;BMP280;15569;42.652;23.040;2023-06-10T12:43:12;92489.03;;;23.94
28305;BMP280;15569;42.652;23.040;2023-06-10T12:45:38;92487.81;;;24.38
28305;BMP280;15569;42.652;23.040;2023-06-10T12:48:23;92482.63;;;24.60
28305;BMP280;15569;42.652;23.040;2023-06-10T12:50:53;92481.06;;;24.73
28305;BMP280;15569;42.652;23.040;2023-06-10T12:53:19;92485.06;;;24.84
28305;BMP280;15569;42.652;23.040;2023-06-10T12:55:45;92485.31;;;24.68
28305;BMP280;15569;42.652;23.040;2023-06-10T12:58:11;92494.75;;;24.87
28305;BMP280;15569;42.652;23.040;2023-06-10T13:00:37;92493.00;;;24.64
28305;BMP280;15569;42.652;23.040;2023-06-10T13:03:03;92497.03;;;24.24
28305;BMP280;15569;42.652;23.040;2023-06-10T13:05:31;92498.72;;;23.97
28305;BMP280;15569;42.652;23.040;2023-06-10T13:07:57;92514.34;;;23.64
28305;BMP280;15569;42.652;23.040;2023-06-10T13:10:23;92531.53;;;22.91
28305;BMP280;15569;42.652;23.040;2023-06-10T13:12:49;92528.91;;;22.65
28305;BMP280;15569;42.652;23.040;2023-06-10T13:15:16;92535.88;;;22.58
28305;BMP280;15569;42.652;23.040;2023-06-10T13:17:42;92535.34;;;22.28
28305;BMP280;15569;42.652;23.040;2023-06-10T13:20:08;92540.94;;;22.08
28305;BMP280;15569;42.652;23.040;2023-06-10T13:22:34;92539.56;;;22.07
28305;BMP280;15569;42.652;23.040;2023-06-10T13:25:05;92532.63;;;22.02
28305;BMP280;15569;42.652;23.040;2023-06-10T13:27:33;92538.22;;;21.92
28305;BMP280;15569;42.652;23.040;2023-06-10T13:29:59;92546.56;;;21.62
28305;BMP280;15569;42.652;23.040;2023-06-10T13:32:24;92547.91;;;21.18
28305;BMP280;15569;42.652;23.040;2023-06-10T13:34:50;92550.69;;;21.32
28305;BMP280;15569;42.652;23.040;2023-06-10T13:37:16;92552.06;;;21.27
28305;BMP280;15569;42.652;23.040;2023-06-10T13:39:44;92547.94;;;21.26
28305;BMP280;15569;42.652;23.040;2023-06-10T13:42:10;92542.41;;;21.22
28305;BMP280;15569;42.652;23.040;2023-06-10T13:44:36;92544.47;;;21.40
28305;BMP280;15569;42.652;23.040;2023-06-10T13:47:05;92532.00;;;21.39
28305;BMP280;15569;42.652;23.040;2023-06-10T13:49:31;92535.50;;;21.41
28305;BMP280;15569;42.652;23.040;2023-06-10T13:51:56;92531.34;;;21.46
28305;BMP280;15569;42.652;23.040;2023-06-10T13:54:22;92520.97;;;21.59
28305;BMP280;15569;42.652;23.040;2023-06-10T13:56:47;92534.09;;;21.73
28305;BMP280;15569;42.652;23.040;2023-06-10T13:59:13;92529.91;;;21.84
28305;BMP280;15569;42.652;23.040;2023-06-10T14:01:38;92531.94;;;22.03
28305;BMP280;15569;42.652;23.040;2023-06-10T14:04:05;92525.69;;;22.11
28305;BMP280;15569;42.652;23.040;2023-06-10T14:06:32;92516.69;;;22.10
28305;BMP280;15569;42.652;23.040;2023-06-10T14:08:58;92520.09;;;22.31
28305;BMP280;15569;42.652;23.040;2023-06-10T14:11:24;92515.84;;;22.50